sensor_id;sensor_type;location;lat;lon;timestamp;P1;durP1;ratioP1;P2;durP2;ratioP2
76733;SDS011;65660;53.288;14.666;2023-08-20T00:01:58;17.42;;;15.25;;
76733;SDS011;65660;53.288;14.666;2023-08-20T00:07:02;17.05;;;15.13;;
76733;SDS011;65660;53.288;14.666;2023-08-20T00:12:02;18.33;;;16.38;;
76733;SDS011;65660;53.288;14.666;2023-08-20T00:17:03;18.20;;;15.90;;
76733;SDS011;65660;53.288;14.666;2023-08-20T00:22:04;18.75;;;15.80;;
76733;SDS011;65660;53.288;14.666;2023-08-20T00:27:04;15.93;;;14.27;;
76733;SDS011;65660;53.288;14.666;2023-08-20T00:32:05;16.83;;;15.02;;
76733;SDS011;65660;53.288;14.666;2023-08-20T00:37:05;16.67;;;14.73;;
76733;SDS011;65660;53.288;14.666;2023-08-20T00:42:06;21.15;;;15.52;;
76733;SDS011;65660;53.288;14.666;2023-08-20T00:47:07;17.83;;;15.73;;
76733;SDS011;65660;53.288;14.666;2023-08-20T00:52:08;16.70;;;14.90;;
76733;SDS011;65660;53.288;14.666;2023-08-20T00:57:09;17.05;;;15.25;;
76733;SDS011;65660;53.288;14.666;2023-08-20T01:02:09;18.98;;;15.57;;
76733;SDS011;65660;53.288;14.666;2023-08-20T01:12:23;21.55;;;16.00;;
76733;SDS011;65660;53.288;14.666;2023-08-20T01:17:24;18.30;;;15.35;;
76733;SDS011;65660;53.288;14.666;2023-08-20T01:27:43;17.38;;;15.18;;
76733;SDS011;65660;53.288;14.666;2023-08-20T01:32:52;16.98;;;14.45;;
76733;SDS011;65660;53.288;14.666;2023-08-20T01:37:54;19.52;;;15.52;;
76733;SDS011;65660;53.288;14.666;2023-08-20T01:42:54;19.17;;;16.05;;
76733;SDS011;65660;53.288;14.666;2023-08-20T01:47:55;16.95;;;15.05;;
76733;SDS011;65660;53.288;14.666;2023-08-20T01:52:55;19.52;;;16.75;;
76733;SDS011;65660;53.288;14.666;2023-08-20T01:57:56;18.67;;;15.30;;
76733;SDS011;65660;53.288;14.666;2023-08-20T02:02:56;20.00;;;17.98;;
76733;SDS011;65660;53.288;14.666;2023-08-20T02:07:57;19.45;;;17.35;;
76733;SDS011;65660;53.288;14.666;2023-08-20T02:12:57;20.75;;;17.50;;
76733;SDS011;65660;53.288;14.666;2023-08-20T02:17:58;20.00;;;17.88;;
76733;SDS011;65660;53.288;14.666;2023-08-20T02:22:58;19.08;;;16.33;;
76733;SDS011;65660;53.288;14.666;2023-08-20T02:27:59;17.75;;;16.00;;
76733;SDS011;65660;53.288;14.666;2023-08-20T02:32:59;20.30;;;17.95;;
76733;SDS011;65660;53.288;14.666;2023-08-20T02:38:00;19.77;;;17.08;;
76733;SDS011;65660;53.288;14.666;2023-08-20T02:43:00;19.77;;;17.67;;
76733;SDS011;65660;53.288;14.666;2023-08-20T02:48:01;20.02;;;17.92;;
76733;SDS011;65660;53.288;14.666;2023-08-20T02:53:02;17.60;;;15.77;;
76733;SDS011;65660;53.288;14.666;2023-08-20T02:58:02;22.80;;;18.73;;
76733;SDS011;65660;53.288;14.666;2023-08-20T03:03:03;18.38;;;16.23;;
76733;SDS011;65660;53.288;14.666;2023-08-20T03:08:04;19.55;;;16.73;;
76733;SDS011;65660;53.288;14.666;2023-08-20T03:13:05;19.60;;;17.40;;
76733;SDS011;65660;53.288;14.666;2023-08-20T03:18:06;25.35;;;19.75;;
76733;SDS011;65660;53.288;14.666;2023-08-20T03:23:06;21.73;;;19.30;;
76733;SDS011;65660;53.288;14.666;2023-08-20T03:28:07;25.13;;;20.08;;
76733;SDS011;65660;53.288;14.666;2023-08-20T03:33:07;27.55;;;21.38;;
76733;SDS011;65660;53.288;14.666;2023-08-20T03:38:08;25.60;;;20.48;;
76733;SDS011;65660;53.288;14.666;2023-08-20T03:43:08;23.65;;;19.77;;
76733;SDS011;65660;53.288;14.666;2023-08-20T03:48:09;24.90;;;18.75;;
76733;SDS011;65660;53.288;14.666;2023-08-20T03:53:09;21.63;;;18.75;;
76733;SDS011;65660;53.288;14.666;2023-08-20T03:58:10;24.38;;;19.80;;
76733;SDS011;65660;53.288;14.666;2023-08-20T04:03:10;22.02;;;19.73;;
76733;SDS011;65660;53.288;14.666;2023-08-20T04:08:11;23.00;;;19.83;;
76733;SDS011;65660;53.288;14.666;2023-08-20T04:13:12;23.42;;;19.77;;
76733;SDS011;65660;53.288;14.666;2023-08-20T04:18:12;22.05;;;19.08;;
76733;SDS011;65660;53.288;14.666;2023-08-20T04:23:13;25.77;;;20.98;;
76733;SDS011;65660;53.288;14.666;2023-08-20T04:28:13;27.05;;;22.33;;
76733;SDS011;65660;53.288;14.666;2023-08-20T04:33:14;28.02;;;23.15;;
76733;SDS011;65660;53.288;14.666;2023-08-20T04:38:15;29.42;;;24.83;;
76733;SDS011;65660;53.288;14.666;2023-08-20T04:43:15;32.58;;;26.35;;
76733;SDS011;65660;53.288;14.666;2023-08-20T04:48:16;30.63;;;25.67;;
76733;SDS011;65660;53.288;14.666;2023-08-20T04:53:16;40.05;;;28.10;;
76733;SDS011;65660;53.288;14.666;2023-08-20T04:58:17;33.20;;;26.20;;
76733;SDS011;65660;53.288;14.666;2023-08-20T05:03:17;30.52;;;24.45;;
76733;SDS011;65660;53.288;14.666;2023-08-20T05:08:18;31.30;;;24.33;;
76733;SDS011;65660;53.288;14.666;2023-08-20T05:13:18;29.73;;;24.85;;
76733;SDS011;65660;53.288;14.666;2023-08-20T05:18:19;29.73;;;24.75;;
76733;SDS011;65660;53.288;14.666;2023-08-20T05:23:19;29.35;;;23.85;;
76733;SDS011;65660;53.288;14.666;2023-08-20T05:28:20;28.90;;;25.55;;
76733;SDS011;65660;53.288;14.666;2023-08-20T05:33:21;26.70;;;22.63;;
76733;SDS011;65660;53.288;14.666;2023-08-20T05:38:21;28.95;;;23.95;;
76733;SDS011;65660;53.288;14.666;2023-08-20T05:43:22;28.20;;;23.55;;
76733;SDS011;65660;53.288;14.666;2023-08-20T05:48:22;28.42;;;23.67;;
76733;SDS011;65660;53.288;14.666;2023-08-20T05:53:23;31.15;;;25.45;;
76733;SDS011;65660;53.288;14.666;2023-08-20T05:58:24;33.13;;;26.95;;
76733;SDS011;65660;53.288;14.666;2023-08-20T06:03:24;33.25;;;26.80;;
76733;SDS011;65660;53.288;14.666;2023-08-20T06:08:25;23.67;;;21.17;;
76733;SDS011;65660;53.288;14.666;2023-08-20T06:13:25;23.17;;;20.70;;
76733;SDS011;65660;53.288;14.666;2023-08-20T06:18:26;29.23;;;24.13;;
76733;SDS011;65660;53.288;14.666;2023-08-20T06:23:26;26.17;;;22.67;;
76733;SDS011;65660;53.288;14.666;2023-08-20T06:28:27;19.90;;;16.88;;
76733;SDS011;65660;53.288;14.666;2023-08-20T06:33:27;17.88;;;15.98;;
76733;SDS011;65660;53.288;14.666;2023-08-20T06:38:28;19.70;;;17.20;;
76733;SDS011;65660;53.288;14.666;2023-08-20T06:43:28;15.32;;;13.75;;
76733;SDS011;65660;53.288;14.666;2023-08-20T06:48:29;15.10;;;13.60;;
76733;SDS011;65660;53.288;14.666;2023-08-20T06:53:30;18.40;;;13.77;;
76733;SDS011;65660;53.288;14.666;2023-08-20T06:58:30;18.08;;;15.35;;
76733;SDS011;65660;53.288;14.666;2023-08-20T07:03:30;16.92;;;15.15;;
76733;SDS011;65660;53.288;14.666;2023-08-20T07:08:31;20.95;;;18.63;;
76733;SDS011;65660;53.288;14.666;2023-08-20T07:13:32;21.50;;;18.73;;
76733;SDS011;65660;53.288;14.666;2023-08-20T07:18:32;21.83;;;19.45;;
76733;SDS011;65660;53.288;14.666;2023-08-20T07:23:33;28.33;;;22.88;;
76733;SDS011;65660;53.288;14.666;2023-08-20T07:28:33;22.67;;;20.17;;
76733;SDS011;65660;53.288;14.666;2023-08-20T07:33:34;23.17;;;20.20;;
76733;SDS011;65660;53.288;14.666;2023-08-20T07:38:35;23.17;;;19.77;;
76733;SDS011;65660;53.288;14.666;2023-08-20T07:43:35;19.45;;;17.45;;
76733;SDS011;65660;53.288;14.666;2023-08-20T07:48:37;19.42;;;17.17;;
76733;SDS011;65660;53.288;14.666;2023-08-20T07:53:38;31.50;;;24.90;;
76733;SDS011;65660;53.288;14.666;2023-08-20T07:58:38;30.77;;;24.67;;
76733;SDS011;65660;53.288;14.666;2023-08-20T08:03:39;31.33;;;25.13;;
76733;SDS011;65660;53.288;14.666;2023-08-20T08:08:42;30.90;;;25.42;;
76733;SDS011;65660;53.288;14.666;2023-08-20T08:13:43;31.83;;;25.85;;
76733;SDS011;65660;53.288;14.666;2023-08-20T08:18:43;30.13;;;25.55;;
76733;SDS011;65660;53.288;14.666;2023-08-20T08:23:44;40.65;;;28.92;;
76733;SDS011;65660;53.288;14.666;2023-08-20T08:28:44;44.78;;;31.58;;
76733;SDS011;65660;53.288;14.666;2023-08-20T08:33:45;47.05;;;30.48;;
76733;SDS011;65660;53.288;14.666;2023-08-20T08:38:45;45.33;;;29.88;;
76733;SDS011;65660;53.288;14.666;2023-08-20T08:43:46;44.88;;;32.17;;
76733;SDS011;65660;53.288;14.666;2023-08-20T08:48:47;39.38;;;29.95;;
76733;SDS011;65660;53.288;14.666;2023-08-20T08:53:47;38.78;;;29.92;;
76733;SDS011;65660;53.288;14.666;2023-08-20T08:58:48;37.50;;;29.27;;
76733;SDS011;65660;53.288;14.666;2023-08-20T09:03:48;35.53;;;29.20;;
76733;SDS011;65660;53.288;14.666;2023-08-20T09:08:49;38.33;;;30.75;;
76733;SDS011;65660;53.288;14.666;2023-08-20T09:13:50;42.13;;;32.78;;
76733;SDS011;65660;53.288;14.666;2023-08-20T09:18:50;44.92;;;33.92;;
76733;SDS011;65660;53.288;14.666;2023-08-20T09:23:51;41.90;;;32.10;;
76733;SDS011;65660;53.288;14.666;2023-08-20T09:28:54;41.50;;;32.92;;
76733;SDS011;65660;53.288;14.666;2023-08-20T09:33:55;43.65;;;34.05;;
76733;SDS011;65660;53.288;14.666;2023-08-20T09:38:55;40.85;;;32.15;;
76733;SDS011;65660;53.288;14.666;2023-08-20T09:43:57;37.28;;;31.00;;
76733;SDS011;65660;53.288;14.666;2023-08-20T09:48:58;33.30;;;27.83;;
76733;SDS011;65660;53.288;14.666;2023-08-20T09:59:05;28.40;;;25.38;;
76733;SDS011;65660;53.288;14.666;2023-08-20T10:04:06;26.48;;;23.77;;
76733;SDS011;65660;53.288;14.666;2023-08-20T10:09:07;25.15;;;22.33;;
76733;SDS011;65660;53.288;14.666;2023-08-20T10:14:08;24.55;;;22.02;;
76733;SDS011;65660;53.288;14.666;2023-08-20T10:19:08;26.38;;;23.58;;
76733;SDS011;65660;53.288;14.666;2023-08-20T10:24:09;24.63;;;22.02;;
76733;SDS011;65660;53.288;14.666;2023-08-20T10:34:37;23.33;;;21.08;;
76733;SDS011;65660;53.288;14.666;2023-08-20T10:39:38;21.98;;;19.88;;
76733;SDS011;65660;53.288;14.666;2023-08-20T10:49:58;21.52;;;19.33;;
76733;SDS011;65660;53.288;14.666;2023-08-20T10:55:00;19.33;;;17.45;;
76733;SDS011;65660;53.288;14.666;2023-08-20T11:00:02;20.98;;;18.80;;
76733;SDS011;65660;53.288;14.666;2023-08-20T11:05:04;19.98;;;18.08;;
76733;SDS011;65660;53.288;14.666;2023-08-20T11:10:04;19.85;;;17.95;;
76733;SDS011;65660;53.288;14.666;2023-08-20T11:15:07;18.55;;;16.70;;
76733;SDS011;65660;53.288;14.666;2023-08-20T11:20:09;18.65;;;16.95;;
76733;SDS011;65660;53.288;14.666;2023-08-20T11:25:10;18.27;;;16.50;;
76733;SDS011;65660;53.288;14.666;2023-08-20T11:30:12;17.58;;;15.98;;
76733;SDS011;65660;53.288;14.666;2023-08-20T11:35:13;18.55;;;16.80;;
76733;SDS011;65660;53.288;14.666;2023-08-20T11:40:13;16.73;;;15.05;;
76733;SDS011;65660;53.288;14.666;2023-08-20T11:45:14;17.40;;;15.60;;
76733;SDS011;65660;53.288;14.666;2023-08-20T11:50:15;16.90;;;15.30;;
76733;SDS011;65660;53.288;14.666;2023-08-20T11:55:21;16.63;;;15.15;;
76733;SDS011;65660;53.288;14.666;2023-08-20T12:00:25;16.38;;;14.77;;
76733;SDS011;65660;53.288;14.666;2023-08-20T12:05:27;15.73;;;14.40;;
76733;SDS011;65660;53.288;14.666;2023-08-20T12:10:28;15.00;;;13.68;;
76733;SDS011;65660;53.288;14.666;2023-08-20T12:15:30;14.10;;;12.80;;
76733;SDS011;65660;53.288;14.666;2023-08-20T12:20:31;19.60;;;17.58;;
76733;SDS011;65660;53.288;14.666;2023-08-20T12:25:33;19.38;;;17.48;;
76733;SDS011;65660;53.288;14.666;2023-08-20T12:30:34;18.25;;;16.38;;
76733;SDS011;65660;53.288;14.666;2023-08-20T12:35:35;18.60;;;16.88;;
76733;SDS011;65660;53.288;14.666;2023-08-20T12:40:35;20.45;;;18.25;;
76733;SDS011;65660;53.288;14.666;2023-08-20T12:45:36;19.02;;;17.13;;
76733;SDS011;65660;53.288;14.666;2023-08-20T12:50:37;18.27;;;16.65;;
76733;SDS011;65660;53.288;14.666;2023-08-20T12:55:37;19.10;;;17.38;;
76733;SDS011;65660;53.288;14.666;2023-08-20T13:00:38;17.02;;;15.52;;
76733;SDS011;65660;53.288;14.666;2023-08-20T13:05:39;19.85;;;18.05;;
76733;SDS011;65660;53.288;14.666;2023-08-20T13:10:40;23.20;;;20.85;;
76733;SDS011;65660;53.288;14.666;2023-08-20T13:15:41;23.27;;;20.77;;
76733;SDS011;65660;53.288;14.666;2023-08-20T13:20:42;22.17;;;19.98;;
76733;SDS011;65660;53.288;14.666;2023-08-20T13:25:43;20.95;;;18.95;;
76733;SDS011;65660;53.288;14.666;2023-08-20T13:30:43;18.05;;;16.25;;
76733;SDS011;65660;53.288;14.666;2023-08-20T13:35:44;18.08;;;16.27;;
76733;SDS011;65660;53.288;14.666;2023-08-20T13:40:44;19.88;;;17.80;;
76733;SDS011;65660;53.288;14.666;2023-08-20T13:45:45;20.75;;;18.85;;
76733;SDS011;65660;53.288;14.666;2023-08-20T13:50:47;21.65;;;19.55;;
76733;SDS011;65660;53.288;14.666;2023-08-20T13:55:47;16.42;;;14.93;;
76733;SDS011;65660;53.288;14.666;2023-08-20T14:00:48;15.98;;;14.23;;
76733;SDS011;65660;53.288;14.666;2023-08-20T14:05:48;14.60;;;13.13;;
76733;SDS011;65660;53.288;14.666;2023-08-20T14:10:49;12.80;;;11.63;;
76733;SDS011;65660;53.288;14.666;2023-08-20T14:15:49;15.70;;;14.20;;
76733;SDS011;65660;53.288;14.666;2023-08-20T14:20:50;14.73;;;13.35;;
76733;SDS011;65660;53.288;14.666;2023-08-20T14:25:51;15.25;;;13.73;;
76733;SDS011;65660;53.288;14.666;2023-08-20T14:30:51;14.40;;;13.10;;
76733;SDS011;65660;53.288;14.666;2023-08-20T14:35:52;14.23;;;12.88;;
76733;SDS011;65660;53.288;14.666;2023-08-20T14:40:52;13.70;;;12.50;;
76733;SDS011;65660;53.288;14.666;2023-08-20T14:45:53;13.13;;;11.93;;
76733;SDS011;65660;53.288;14.666;2023-08-20T14:50:53;12.65;;;11.55;;
76733;SDS011;65660;53.288;14.666;2023-08-20T14:55:54;14.07;;;12.65;;
76733;SDS011;65660;53.288;14.666;2023-08-20T15:00:54;13.48;;;12.15;;
76733;SDS011;65660;53.288;14.666;2023-08-20T15:05:55;12.70;;;11.60;;
76733;SDS011;65660;53.288;14.666;2023-08-20T15:11:00;13.75;;;12.48;;
76733;SDS011;65660;53.288;14.666;2023-08-20T15:16:01;15.88;;;13.77;;
76733;SDS011;65660;53.288;14.666;2023-08-20T15:21:02;13.38;;;12.05;;
76733;SDS011;65660;53.288;14.666;2023-08-20T15:26:03;13.32;;;11.93;;
76733;SDS011;65660;53.288;14.666;2023-08-20T15:31:04;13.45;;;12.05;;
76733;SDS011;65660;53.288;14.666;2023-08-20T15:36:04;13.82;;;12.15;;
76733;SDS011;65660;53.288;14.666;2023-08-20T15:41:05;12.32;;;11.23;;
76733;SDS011;65660;53.288;14.666;2023-08-20T15:46:06;11.95;;;10.85;;
76733;SDS011;65660;53.288;14.666;2023-08-20T15:51:07;12.50;;;11.30;;
76733;SDS011;65660;53.288;14.666;2023-08-20T15:56:08;13.25;;;11.73;;
76733;SDS011;65660;53.288;14.666;2023-08-20T16:01:09;13.90;;;12.57;;
76733;SDS011;65660;53.288;14.666;2023-08-20T16:06:10;12.98;;;11.75;;
76733;SDS011;65660;53.288;14.666;2023-08-20T16:11:10;12.68;;;11.38;;
76733;SDS011;65660;53.288;14.666;2023-08-20T16:16:11;13.27;;;11.45;;
76733;SDS011;65660;53.288;14.666;2023-08-20T16:21:12;11.93;;;10.60;;
76733;SDS011;65660;53.288;14.666;2023-08-20T16:26:13;12.27;;;11.02;;
76733;SDS011;65660;53.288;14.666;2023-08-20T16:31:13;12.20;;;10.98;;
76733;SDS011;65660;53.288;14.666;2023-08-20T16:36:14;12.00;;;10.80;;
76733;SDS011;65660;53.288;14.666;2023-08-20T16:41:14;11.98;;;10.80;;
76733;SDS011;65660;53.288;14.666;2023-08-20T16:46:15;11.95;;;10.75;;
76733;SDS011;65660;53.288;14.666;2023-08-20T16:51:16;12.02;;;10.90;;
76733;SDS011;65660;53.288;14.666;2023-08-20T16:56:18;13.18;;;11.10;;
76733;SDS011;65660;53.288;14.666;2023-08-20T17:01:18;12.85;;;11.55;;
76733;SDS011;65660;53.288;14.666;2023-08-20T17:06:19;22.23;;;15.48;;
76733;SDS011;65660;53.288;14.666;2023-08-20T17:11:20;12.63;;;11.35;;
76733;SDS011;65660;53.288;14.666;2023-08-20T17:16:20;17.63;;;12.80;;
76733;SDS011;65660;53.288;14.666;2023-08-20T17:21:22;14.27;;;12.15;;
76733;SDS011;65660;53.288;14.666;2023-08-20T17:26:24;12.15;;;10.95;;
76733;SDS011;65660;53.288;14.666;2023-08-20T17:31:24;13.23;;;11.93;;
76733;SDS011;65660;53.288;14.666;2023-08-20T17:36:25;12.77;;;11.57;;
76733;SDS011;65660;53.288;14.666;2023-08-20T17:41:26;12.55;;;10.70;;
76733;SDS011;65660;53.288;14.666;2023-08-20T17:46:40;12.45;;;11.25;;
76733;SDS011;65660;53.288;14.666;2023-08-20T17:51:43;13.52;;;10.90;;
76733;SDS011;65660;53.288;14.666;2023-08-20T17:56:45;19.92;;;15.73;;
76733;SDS011;65660;53.288;14.666;2023-08-20T18:01:47;75.95;;;34.38;;
76733;SDS011;65660;53.288;14.666;2023-08-20T18:06:52;18.20;;;13.00;;
76733;SDS011;65660;53.288;14.666;2023-08-20T18:11:53;17.67;;;14.23;;
76733;SDS011;65660;53.288;14.666;2023-08-20T18:16:56;13.80;;;12.50;;
76733;SDS011;65660;53.288;14.666;2023-08-20T18:21:57;18.15;;;13.88;;
76733;SDS011;65660;53.288;14.666;2023-08-20T18:26:58;10.73;;;9.73;;
76733;SDS011;65660;53.288;14.666;2023-08-20T18:31:58;17.15;;;13.00;;
76733;SDS011;65660;53.288;14.666;2023-08-20T18:36:59;11.43;;;10.23;;
76733;SDS011;65660;53.288;14.666;2023-08-20T18:41:59;11.57;;;10.15;;
76733;SDS011;65660;53.288;14.666;2023-08-20T18:47:00;13.82;;;11.70;;
76733;SDS011;65660;53.288;14.666;2023-08-20T18:52:00;15.35;;;11.85;;
76733;SDS011;65660;53.288;14.666;2023-08-20T18:57:01;14.20;;;11.35;;
76733;SDS011;65660;53.288;14.666;2023-08-20T19:02:01;16.00;;;11.40;;
76733;SDS011;65660;53.288;14.666;2023-08-20T19:07:02;14.85;;;11.82;;
76733;SDS011;65660;53.288;14.666;2023-08-20T19:12:02;13.20;;;10.65;;
76733;SDS011;65660;53.288;14.666;2023-08-20T19:17:03;12.27;;;10.27;;
76733;SDS011;65660;53.288;14.666;2023-08-20T19:22:04;11.30;;;10.02;;
76733;SDS011;65660;53.288;14.666;2023-08-20T19:27:04;10.40;;;9.35;;
76733;SDS011;65660;53.288;14.666;2023-08-20T19:32:06;11.93;;;10.18;;
76733;SDS011;65660;53.288;14.666;2023-08-20T19:37:07;11.85;;;8.98;;
76733;SDS011;65660;53.288;14.666;2023-08-20T19:42:07;9.93;;;8.38;;
76733;SDS011;65660;53.288;14.666;2023-08-20T19:47:08;9.27;;;8.00;;
76733;SDS011;65660;53.288;14.666;2023-08-20T19:52:08;11.15;;;8.20;;
76733;SDS011;65660;53.288;14.666;2023-08-20T19:57:09;9.50;;;8.00;;
76733;SDS011;65660;53.288;14.666;2023-08-20T20:02:11;9.88;;;8.55;;
76733;SDS011;65660;53.288;14.666;2023-08-20T20:07:11;13.23;;;11.98;;
76733;SDS011;65660;53.288;14.666;2023-08-20T20:12:12;11.95;;;10.88;;
76733;SDS011;65660;53.288;14.666;2023-08-20T20:17:12;11.77;;;10.82;;
76733;SDS011;65660;53.288;14.666;2023-08-20T20:22:13;11.68;;;10.60;;
76733;SDS011;65660;53.288;14.666;2023-08-20T20:27:13;12.32;;;11.20;;
76733;SDS011;65660;53.288;14.666;2023-08-20T20:32:14;11.52;;;10.40;;
76733;SDS011;65660;53.288;14.666;2023-08-20T20:37:15;14.55;;;11.45;;
76733;SDS011;65660;53.288;14.666;2023-08-20T20:42:15;12.35;;;11.10;;
76733;SDS011;65660;53.288;14.666;2023-08-20T20:47:16;11.98;;;10.80;;
76733;SDS011;65660;53.288;14.666;2023-08-20T20:52:16;13.52;;;11.80;;
76733;SDS011;65660;53.288;14.666;2023-08-20T20:57:17;12.02;;;10.93;;
76733;SDS011;65660;53.288;14.666;2023-08-20T21:02:17;11.88;;;10.75;;
76733;SDS011;65660;53.288;14.666;2023-08-20T21:07:18;12.73;;;11.55;;
76733;SDS011;65660;53.288;14.666;2023-08-20T21:12:19;15.23;;;10.77;;
76733;SDS011;65660;53.288;14.666;2023-08-20T21:17:20;12.43;;;11.25;;
76733;SDS011;65660;53.288;14.666;2023-08-20T21:22:20;12.55;;;11.35;;
76733;SDS011;65660;53.288;14.666;2023-08-20T21:27:21;11.45;;;10.27;;
76733;SDS011;65660;53.288;14.666;2023-08-20T21:32:22;13.00;;;11.60;;
76733;SDS011;65660;53.288;14.666;2023-08-20T21:37:23;11.75;;;10.65;;
76733;SDS011;65660;53.288;14.666;2023-08-20T21:42:25;12.95;;;11.70;;
76733;SDS011;65660;53.288;14.666;2023-08-20T21:47:26;11.10;;;9.95;;
76733;SDS011;65660;53.288;14.666;2023-08-20T21:52:27;11.23;;;9.73;;
76733;SDS011;65660;53.288;14.666;2023-08-20T21:57:27;12.40;;;11.35;;
76733;SDS011;65660;53.288;14.666;2023-08-20T22:02:28;11.90;;;10.70;;
76733;SDS011;65660;53.288;14.666;2023-08-20T22:07:28;12.20;;;10.98;;
76733;SDS011;65660;53.288;14.666;2023-08-20T22:12:29;11.43;;;10.25;;
76733;SDS011;65660;53.288;14.666;2023-08-20T22:17:29;8.55;;;7.20;;
76733;SDS011;65660;53.288;14.666;2023-08-20T22:22:30;11.13;;;10.00;;
76733;SDS011;65660;53.288;14.666;2023-08-20T22:27:30;10.25;;;9.07;;
76733;SDS011;65660;53.288;14.666;2023-08-20T22:32:31;10.57;;;9.57;;
76733;SDS011;65660;53.288;14.666;2023-08-20T22:37:31;11.38;;;9.95;;
76733;SDS011;65660;53.288;14.666;2023-08-20T22:42:32;10.43;;;9.45;;
76733;SDS011;65660;53.288;14.666;2023-08-20T22:47:33;12.07;;;10.00;;
76733;SDS011;65660;53.288;14.666;2023-08-20T22:52:33;11.68;;;9.82;;
76733;SDS011;65660;53.288;14.666;2023-08-20T22:57:34;11.10;;;9.98;;
76733;SDS011;65660;53.288;14.666;2023-08-20T23:02:34;10.85;;;9.75;;
76733;SDS011;65660;53.288;14.666;2023-08-20T23:07:35;9.57;;;8.77;;
76733;SDS011;65660;53.288;14.666;2023-08-20T23:12:36;10.60;;;9.60;;
76733;SDS011;65660;53.288;14.666;2023-08-20T23:17:37;10.15;;;9.13;;
76733;SDS011;65660;53.288;14.666;2023-08-20T23:22:38;10.32;;;9.43;;
76733;SDS011;65660;53.288;14.666;2023-08-20T23:27:38;10.95;;;10.05;;
76733;SDS011;65660;53.288;14.666;2023-08-20T23:32:39;10.85;;;9.75;;
76733;SDS011;65660;53.288;14.666;2023-08-20T23:37:40;12.65;;;11.57;;
76733;SDS011;65660;53.288;14.666;2023-08-20T23:42:40;11.07;;;10.05;;
76733;SDS011;65660;53.288;14.666;2023-08-20T23:47:41;12.95;;;11.80;;
76733;SDS011;65660;53.288;14.666;2023-08-20T23:52:41;10.63;;;9.73;;
76733;SDS011;65660;53.288;14.666;2023-08-20T23:57:42;13.35;;;8.23;;
